Metaline Falls, WA (99153)

5:59 AM PST on December 18, 2014 (GMT -0800)
APRSWXNET Ione WA US | Change Station
CLOSE
Current Station
Personal Weather Station
Location: Ione, WA
Elevation: 2631 ft
Nearby Weather Stations
Active Advisory: Air Stagnation Advisory

Elev 2631 ft 48.78 °N, 117.29 °W | Updated 27 minutes ago

Snow
Snow
34 °F
Feels Like 34 °F
N
0
Wind Variable Wind from West
Gusts 0.0 mph

Today
High -- | Low -- °F
--% Chance of Precip.
Yesterday
High -- | Low -- °F
Precip. -- in
7:38 AM 3:53 PM
Waning Crescent, 14% visible
Pressure 29.97 in
Visibility 0.5 miles
Clouds Overcast 200 ft
Windchill 34 °F
Dew Point 32 °F
Humidity 91%
Rainfall 0.00 in
Snow Depth Not available.
UV 0 out of 12
Pollen .10 out of 12
Air Quality Not available.
Flu Activity Not available.
METAR K65S 181335Z AUTO 00000KT 1/2SM FZFG OVC002 00/00 A2997 RMK AO2

More Conditions Fewer Conditions

Pressure 29.97 in
Visibility 0.5 miles
Clouds Overcast 200 ft
Windchill 34 °F
Dew Point 32 °F
Humidity 91%
Rainfall 0.00 in
Snow Depth Not available.
UV 0 out of 12
Pollen .10 out of 12
Air Quality Not available.
Flu Activity Not available.
METAR K65S 181335Z AUTO 00000KT 1/2SM FZFG OVC002 00/00 A2997 RMK AO2

More Conditions Fewer Conditions

10-Day Weather Forecast

Almanac

Astronomy

Dec. 18, 2014 Rise Set
Actual Time
Civil Twilight
Nautical Twilight
Astronomical Twilight
Moon
Length of Visible Light
Length of Day
Tomorrow will be .
, % of the Moon is Illuminated

Today's Extremes

State Highs State Lows

Community

WunderPhotos

Upload Photos

1,778,928 photos uploaded!

WunderBlogs® & News

Nearby

Air Quality

  Air Quality AQ Index Pollutant
Not available.

Snow Depth

Station Depth Elevation

Earthquake Activity

City Distance Mag. Time & Date
Minimum magnitude displayed is 2.5.

Coastal Water Temperatures

Place Temperature

Nearby Weather Stations